Tropical Cyclones
[Index]
Main Index Home Page Stock Weather Photos Extreme Storms Discussion Storm News and Storm Chasing Reports Tropical Cyclones / Hurricanes / Typhoons Weather Data and Links Wild Fires / Bushfires Weather Observation Techniques Weather Picture Catalogue Tornado Pictures and Reports Stock Video Footage and DVDs for sale
Season 1955-1956 Tropical Cyclone 195626 Track Map
Season 1955-1956 Summaries: [BoM-AU] [JTWC-AU] [JTWC-SIO] [JTWC-SPAC] [JTWC-SH]
<<- Previous TC | JTWC 1955-1956 Season | Next TC ->>

click for intensity scale information  Lat/long Grid: Show Hide

 Date Labels: Show Hide

Joint Typhoon Warning Centre Cyclone Data

Name: 195626
Number: 268 / 5626

12 Mar 1956 18:00 UTC to 18 Mar 1956 12:00 UTC

    date/time    lat    long     hPa   cat  kts
1956-03-12 18   20.6   168.9                  20          
1956-03-13 00   21.4   168.3                  15          
1956-03-13 06   22.1   167.7                  15          
1956-03-13 12   22.8   166.8                  15          
1956-03-13 18   23.4   166.1                  15          
1956-03-14 00   23.7   166.0                  20          
1956-03-14 06   24.0   165.9                  25          
1956-03-14 12   24.4   165.5            1     40          
1956-03-14 18   24.7   165.1            1     45          
1956-03-15 00   24.9   164.7                  35          
1956-03-15 06   25.0   163.8                  30          
1956-03-15 12   25.3   162.6                  25          
1956-03-15 18   25.5   161.2                  25          
1956-03-16 00   25.9   159.7                  20          
1956-03-16 06   26.7   158.3                  20          
1956-03-16 12   27.8   157.8                  20          
1956-03-16 18   29.0   157.7                  20          
1956-03-17 00   30.1   157.6                  35          
1956-03-17 06   31.2   158.2            1     40          
1956-03-17 12   33.4   159.5                  35          
1956-03-17 18   35.6   161.3                  35          
1956-03-18 00   37.2   163.2                  30          
1956-03-18 06   38.5   165.4                  30          
1956-03-18 12   39.7   168.2                  30          
Winds are 1-min average.

Tropical cyclone tracks developed by Michael Bath using data from the Joint Typhoon Warning Centre Best Tracks and Google Maps.


[Australian Severe Weather index] [Copyright Notice] [Email Contacts] [Search This Site] [Privacy Policy]
Document: tropical_cyclone_195626.htm Updated: 18 September 2016